Terminal Aerodrome Forecast
Issued by NWS

Home | Current Version | Previous Version | Text Only | Print | Product List | Glossary On
Versions: 1 2 3 4 5 6 7 8 9 10 11 12
000
FTUS45 KRIW 272300
TAFWRL
TAF
KWRL 272321Z 2800/2824 VRB05KT P6SM SCT250
     FM280500 VRB05KT P6SM BKN120
     FM281200 VRB05KT 6SM -RASN BKN025
     FM281800 VRB05KT P6SM VCSH BKN050
     FM282100 33008KT P6SM BKN080=

USA.gov is the U.S. government's official web portal to all federal, state and local government web resources and services.